createdAt,value
2018-09-19T00:02:02.065Z,8.30
2018-09-19T00:04:29.875Z,8.32
2018-09-19T00:06:57.591Z,8.35
2018-09-19T00:09:25.290Z,8.36
2018-09-19T00:11:53.008Z,8.36
2018-09-19T00:14:20.719Z,8.36
2018-09-19T00:16:48.435Z,8.34
2018-09-19T00:19:16.177Z,8.38
2018-09-19T00:21:44.023Z,8.38
2018-09-19T00:24:11.859Z,8.37
2018-09-19T00:26:39.550Z,8.35
2018-09-19T00:29:07.251Z,8.36
2018-09-19T00:31:34.975Z,8.37
2018-09-19T00:34:02.739Z,8.38
2018-09-19T00:36:30.451Z,8.40
2018-09-19T00:38:58.127Z,8.42
2018-09-19T00:41:25.919Z,8.42
2018-09-19T00:43:53.706Z,8.45
2018-09-19T00:46:21.412Z,8.46
2018-09-19T00:48:49.208Z,8.46
2018-09-19T00:51:16.915Z,8.47
2018-09-19T00:53:44.637Z,8.51
2018-09-19T00:56:12.372Z,8.55
2018-09-19T00:58:40.128Z,8.58
2018-09-19T01:01:07.926Z,8.60
2018-09-19T01:03:35.671Z,8.61
2018-09-19T01:06:03.403Z,8.65
2018-09-19T01:08:31.108Z,8.67
2018-09-19T01:10:58.875Z,8.69
2018-09-19T01:13:43.387Z,8.70
2018-09-19T01:16:11.171Z,8.73
2018-09-19T01:18:38.865Z,8.76
2018-09-19T01:21:06.660Z,8.78
2018-09-19T01:23:34.353Z,8.81
2018-09-19T01:26:02.060Z,8.85
2018-09-19T01:28:29.830Z,8.86
2018-09-19T01:30:57.536Z,8.88
2018-09-19T01:33:25.257Z,8.90
2018-09-19T01:35:53.002Z,8.91
2018-09-19T01:38:20.693Z,8.92
2018-09-19T01:40:48.401Z,8.92
2018-09-19T01:43:16.157Z,8.93
2018-09-19T01:45:43.879Z,8.94
2018-09-19T01:48:11.596Z,8.99
2018-09-19T01:50:39.401Z,9.01
2018-09-19T01:53:07.124Z,9.04
2018-09-19T01:55:34.810Z,9.06
2018-09-19T01:58:02.547Z,9.09
2018-09-19T02:00:30.436Z,9.12
2018-09-19T02:02:58.126Z,9.15
2018-09-19T02:05:25.839Z,9.17
2018-09-19T02:07:53.570Z,9.18
2018-09-19T02:10:21.268Z,9.21
2018-09-19T02:12:48.957Z,9.23
2018-09-19T02:15:16.809Z,9.26
2018-09-19T02:17:44.496Z,9.27
2018-09-19T02:20:12.201Z,9.31
2018-09-19T02:22:39.973Z,9.33
2018-09-19T02:25:07.727Z,9.35
2018-09-19T02:27:35.433Z,9.38
2018-09-19T02:30:03.423Z,9.41
2018-09-19T02:32:31.180Z,9.43
2018-09-19T02:34:58.841Z,9.44
2018-09-19T02:37:26.554Z,9.45
2018-09-19T02:39:54.272Z,9.48
2018-09-19T02:42:22.002Z,9.51
2018-09-19T02:44:49.705Z,9.52
2018-09-19T02:47:17.401Z,9.59
2018-09-19T02:49:45.140Z,9.61
2018-09-19T02:52:12.827Z,9.60
2018-09-19T02:54:40.516Z,9.62
2018-09-19T02:57:08.204Z,9.67
2018-09-19T02:59:35.971Z,9.88
2018-09-19T03:02:03.656Z,10.07
2018-09-19T03:04:31.367Z,10.17
2018-09-19T03:06:59.082Z,10.25
2018-09-19T03:09:26.803Z,10.34
2018-09-19T03:11:54.515Z,10.43
2018-09-19T03:14:22.228Z,10.47
2018-09-19T03:19:17.713Z,10.57
2018-09-19T03:21:45.417Z,10.60
2018-09-19T03:24:13.195Z,10.67
2018-09-19T03:26:40.918Z,10.71
2018-09-19T03:29:08.664Z,10.72
2018-09-19T03:31:36.391Z,10.71
2018-09-19T03:34:04.168Z,10.65
2018-09-19T03:36:31.940Z,10.65
2018-09-19T03:38:59.659Z,10.73
2018-09-19T03:41:27.388Z,10.86
2018-09-19T03:43:55.124Z,10.90
2018-09-19T03:46:22.851Z,10.99
2018-09-19T03:48:50.615Z,11.04
2018-09-19T03:51:18.323Z,11.09
2018-09-19T03:53:46.052Z,11.12
2018-09-19T03:56:13.832Z,11.15
2018-09-19T03:58:41.552Z,11.18
2018-09-19T04:01:09.260Z,11.21
2018-09-19T04:03:37.042Z,11.26
2018-09-19T04:06:04.793Z,11.29
2018-09-19T04:08:32.527Z,11.33
2018-09-19T04:11:00.301Z,11.34
2018-09-19T04:13:28.005Z,11.37
2018-09-19T04:15:55.741Z,11.39
2018-09-19T04:18:23.552Z,11.41
2018-09-19T04:20:51.284Z,11.45
2018-09-19T04:23:18.995Z,11.50
2018-09-19T04:25:46.779Z,11.52
2018-09-19T04:28:14.513Z,11.56
2018-09-19T04:30:42.377Z,11.60
2018-09-19T04:33:10.103Z,11.63
2018-09-19T04:35:37.921Z,11.68
2018-09-19T04:38:05.819Z,11.71
2018-09-19T04:40:33.638Z,11.74
2018-09-19T04:43:01.348Z,11.77
2018-09-19T04:45:29.083Z,11.80
2018-09-19T04:47:56.817Z,11.81
2018-09-19T04:50:24.609Z,11.82
2018-09-19T04:52:52.343Z,11.85
2018-09-19T04:55:20.050Z,11.89
2018-09-19T04:57:47.791Z,11.90
2018-09-19T05:00:15.496Z,11.91
2018-09-19T05:02:43.189Z,11.95
2018-09-19T05:05:10.899Z,11.95
2018-09-19T05:07:38.574Z,11.96
2018-09-19T05:10:06.292Z,12.02
2018-09-19T05:12:34.035Z,12.03
2018-09-19T05:15:01.753Z,12.06
2018-09-19T05:17:29.515Z,12.07
2018-09-19T05:19:57.320Z,12.08
2018-09-19T05:22:25.044Z,12.09
2018-09-19T05:24:52.773Z,12.12
2018-09-19T05:27:20.473Z,12.14
2018-09-19T05:29:48.244Z,12.15
2018-09-19T05:32:15.974Z,12.18
2018-09-19T05:34:43.687Z,12.19
2018-09-19T05:37:11.412Z,12.21
2018-09-19T05:39:39.100Z,12.24
2018-09-19T05:42:06.857Z,12.25
2018-09-19T05:44:34.693Z,12.27
2018-09-19T05:47:02.402Z,12.30
2018-09-19T05:49:30.195Z,12.32
2018-09-19T05:51:57.941Z,12.32
2018-09-19T05:54:25.699Z,12.35
2018-09-19T05:56:53.398Z,12.38
2018-09-19T05:59:21.116Z,12.40
2018-09-19T06:01:48.848Z,12.42
2018-09-19T06:04:16.536Z,12.44
2018-09-19T06:06:44.269Z,12.46
2018-09-19T06:09:12.438Z,12.47
2018-09-19T06:11:40.443Z,12.49
2018-09-19T06:14:08.240Z,12.50
2018-09-19T06:16:36.097Z,12.53
2018-09-19T06:19:03.827Z,12.54
2018-09-19T06:21:31.523Z,12.58
2018-09-19T06:23:59.253Z,12.57
2018-09-19T06:26:26.980Z,12.58
2018-09-19T06:28:54.806Z,12.61
2018-09-19T06:31:23.178Z,12.67
2018-09-19T06:33:50.983Z,12.67
2018-09-19T06:36:18.704Z,12.71
2018-09-19T06:38:46.569Z,12.74
2018-09-19T06:41:14.356Z,12.78
2018-09-19T06:43:42.116Z,12.80
2018-09-19T06:46:09.846Z,12.82
2018-09-19T06:48:37.599Z,12.84
2018-09-19T06:51:05.370Z,12.87
2018-09-19T06:53:33.500Z,12.89
2018-09-19T06:56:02.079Z,12.90
2018-09-19T06:58:29.799Z,12.92
2018-09-19T07:00:57.565Z,12.95
2018-09-19T07:03:25.325Z,12.99
2018-09-19T07:05:53.128Z,13.01
2018-09-19T07:08:20.819Z,13.03
2018-09-19T07:10:48.530Z,13.06
2018-09-19T07:13:16.294Z,13.06
2018-09-19T07:15:44.136Z,13.05
2018-09-19T07:18:11.855Z,13.04
2018-09-19T07:20:39.671Z,13.07
2018-09-19T07:23:07.406Z,13.09
2018-09-19T07:25:35.167Z,13.14
2018-09-19T07:28:02.909Z,13.15
2018-09-19T07:30:30.632Z,13.14
2018-09-19T07:32:58.399Z,13.11
2018-09-19T07:35:26.174Z,13.12
2018-09-19T07:37:53.877Z,13.14
2018-09-19T07:40:21.600Z,13.17
2018-09-19T07:42:49.453Z,13.22
2018-09-19T07:45:17.149Z,13.29
2018-09-19T07:47:44.841Z,13.32
2018-09-19T07:50:12.601Z,13.34
2018-09-19T07:52:40.336Z,13.36
2018-09-19T07:55:08.512Z,13.39
2018-09-19T07:57:36.583Z,13.37
2018-09-19T08:00:04.628Z,13.38
2018-09-19T08:02:32.356Z,13.40
2018-09-19T08:05:00.119Z,13.40
2018-09-19T08:07:27.876Z,13.39
2018-09-19T08:09:55.614Z,13.35
2018-09-19T08:12:23.366Z,13.33
2018-09-19T08:14:51.153Z,13.31
2018-09-19T08:17:18.886Z,13.35
2018-09-19T08:19:46.577Z,13.36
2018-09-19T08:22:14.355Z,13.37
2018-09-19T08:24:42.086Z,13.42
2018-09-19T08:27:10.123Z,13.42
2018-09-19T08:29:37.844Z,13.44
2018-09-19T08:32:05.592Z,13.51
2018-09-19T08:34:33.369Z,13.55
2018-09-19T08:37:01.082Z,13.58
2018-09-19T08:39:29.698Z,13.62
2018-09-19T08:41:57.433Z,13.57
2018-09-19T08:44:25.196Z,13.60
2018-09-19T08:46:52.978Z,13.61
2018-09-19T08:49:20.685Z,13.66
2018-09-19T08:51:48.398Z,13.68
2018-09-19T08:54:16.132Z,13.68
2018-09-19T08:56:43.868Z,13.69
2018-09-19T08:59:11.617Z,13.70
2018-09-19T09:01:39.353Z,13.70
2018-09-19T09:04:07.069Z,13.72
2018-09-19T09:06:34.812Z,13.70
2018-09-19T09:09:02.962Z,13.77
2018-09-19T09:11:30.686Z,13.86
2018-09-19T09:13:58.439Z,13.91
2018-09-19T09:16:26.236Z,13.96
2018-09-19T09:18:54.077Z,13.97
2018-09-19T09:21:21.776Z,13.96
2018-09-19T09:23:49.521Z,14.02
2018-09-19T09:26:17.327Z,14.09
2018-09-19T09:28:45.085Z,14.17
2018-09-19T09:31:12.862Z,14.25
2018-09-19T09:33:40.624Z,14.32
2018-09-19T09:36:08.344Z,14.34
2018-09-19T09:38:36.103Z,14.31
2018-09-19T09:41:03.887Z,14.39
2018-09-19T09:43:31.719Z,14.47
2018-09-19T09:45:59.482Z,14.57
2018-09-19T09:48:27.195Z,14.64
2018-09-19T09:50:54.924Z,14.79
2018-09-19T09:53:22.651Z,14.96
2018-09-19T09:55:50.372Z,15.17
2018-09-19T09:58:18.236Z,15.21
2018-09-19T10:00:45.984Z,15.24
2018-09-19T10:03:13.703Z,15.32
2018-09-19T10:05:41.558Z,15.32
2018-09-19T10:08:09.459Z,15.35
2018-09-19T10:10:38.024Z,15.44
2018-09-19T10:13:05.784Z,15.55
2018-09-19T10:15:33.806Z,15.62
2018-09-19T10:18:01.541Z,15.61
2018-09-19T10:20:29.309Z,15.73
2018-09-19T10:22:57.109Z,15.80
2018-09-19T10:25:25.101Z,15.82
2018-09-19T10:27:52.895Z,15.86
2018-09-19T10:30:20.597Z,15.83
2018-09-19T10:32:48.383Z,15.83
2018-09-19T10:35:16.151Z,15.93
2018-09-19T10:37:43.935Z,15.88
2018-09-19T10:40:11.659Z,15.92
2018-09-19T10:42:39.407Z,15.90
2018-09-19T10:45:07.559Z,15.94
2018-09-19T10:47:35.655Z,16.00
2018-09-19T10:50:03.380Z,16.07
2018-09-19T10:52:31.079Z,16.04
2018-09-19T10:54:58.827Z,16.09
2018-09-19T10:57:26.586Z,16.09
2018-09-19T10:59:54.315Z,16.03
2018-09-19T11:02:22.049Z,16.06
2018-09-19T11:04:49.753Z,16.12
2018-09-19T11:07:17.523Z,16.15
2018-09-19T11:09:45.261Z,16.22
2018-09-19T11:12:13.008Z,16.23
2018-09-19T11:14:40.759Z,16.27
2018-09-19T11:17:08.456Z,16.27
2018-09-19T11:19:36.176Z,16.30
2018-09-19T11:22:03.906Z,16.31
2018-09-19T11:24:31.696Z,16.25
2018-09-19T11:26:59.451Z,16.26
2018-09-19T11:29:27.231Z,16.33
2018-09-19T11:31:54.979Z,16.34
2018-09-19T11:34:22.709Z,16.39
2018-09-19T11:36:50.735Z,16.48
2018-09-19T11:39:18.470Z,16.45
2018-09-19T11:41:46.237Z,16.45
2018-09-19T11:44:13.966Z,16.52
2018-09-19T11:46:41.712Z,16.59
2018-09-19T11:49:09.603Z,16.63
2018-09-19T11:51:37.312Z,16.65
2018-09-19T11:54:05.126Z,16.63
2018-09-19T11:56:32.860Z,16.65
2018-09-19T11:59:00.570Z,16.70
2018-09-19T12:01:28.300Z,16.71
2018-09-19T12:03:56.012Z,16.70
2018-09-19T12:06:23.788Z,16.73
2018-09-19T12:08:51.524Z,16.76
2018-09-19T12:11:19.284Z,16.77
2018-09-19T12:13:47.014Z,16.76
2018-09-19T12:16:14.705Z,16.68
2018-09-19T12:18:42.404Z,16.62
2018-09-19T12:21:10.135Z,16.57
2018-09-19T12:23:37.892Z,16.39
2018-09-19T12:26:05.715Z,16.45
2018-09-19T12:28:33.448Z,16.41
2018-09-19T12:31:01.190Z,16.30
2018-09-19T12:33:28.919Z,16.28
2018-09-19T12:35:56.631Z,16.32
2018-09-19T12:38:24.397Z,16.34
2018-09-19T12:40:52.158Z,16.30
2018-09-19T12:43:19.956Z,16.30
2018-09-19T12:45:47.861Z,16.25
2018-09-19T12:48:15.563Z,16.24
2018-09-19T12:50:43.267Z,16.27
2018-09-19T12:53:11.012Z,16.23
2018-09-19T12:55:38.797Z,16.19
2018-09-19T12:58:06.500Z,16.15
2018-09-19T13:00:34.233Z,16.14
2018-09-19T13:03:02.058Z,16.18
2018-09-19T13:05:29.753Z,16.18
2018-09-19T13:07:57.485Z,16.18
2018-09-19T13:10:25.203Z,16.13
2018-09-19T13:12:52.899Z,16.04
2018-09-19T13:15:20.636Z,16.02
2018-09-19T13:17:48.386Z,16.02
2018-09-19T13:20:16.100Z,16.00
2018-09-19T13:22:43.819Z,15.94
2018-09-19T13:25:11.701Z,15.92
2018-09-19T13:27:39.473Z,15.93
2018-09-19T13:30:07.297Z,15.94
2018-09-19T13:32:35.007Z,15.93
2018-09-19T13:35:02.772Z,15.92
2018-09-19T13:37:30.494Z,15.90
2018-09-19T13:39:58.474Z,15.90
2018-09-19T13:42:26.343Z,15.92
2018-09-19T13:44:54.196Z,15.89
2018-09-19T13:47:21.993Z,15.86
2018-09-19T13:49:54.398Z,15.86
2018-09-19T13:52:22.113Z,15.84
2018-09-19T13:54:49.862Z,15.80
2018-09-19T13:57:17.665Z,15.99
2018-09-19T13:59:45.438Z,16.09
2018-09-19T14:02:13.187Z,16.19
2018-09-19T14:04:40.896Z,16.26
2018-09-19T14:07:08.644Z,16.25
2018-09-19T14:09:36.420Z,16.16
2018-09-19T14:12:04.171Z,16.06
2018-09-19T14:14:31.918Z,15.99
2018-09-19T14:16:59.650Z,15.89
2018-09-19T14:19:27.388Z,15.87
2018-09-19T14:21:55.102Z,15.82
2018-09-19T14:24:22.873Z,15.86
2018-09-19T14:26:50.588Z,15.94
2018-09-19T14:29:18.368Z,15.99
2018-09-19T14:31:46.133Z,15.99
2018-09-19T14:34:13.873Z,15.94
2018-09-19T14:36:41.632Z,15.94
2018-09-19T14:39:09.350Z,15.91
2018-09-19T14:41:37.132Z,15.83
2018-09-19T14:44:04.881Z,15.78
2018-09-19T14:46:32.572Z,15.70
2018-09-19T14:49:00.348Z,15.59
2018-09-19T14:51:28.057Z,15.47
2018-09-19T14:53:55.777Z,15.40
2018-09-19T14:56:23.500Z,15.33
2018-09-19T14:58:51.264Z,15.32
2018-09-19T15:01:19.023Z,15.32
2018-09-19T15:03:46.729Z,15.29
2018-09-19T15:06:14.484Z,15.27
2018-09-19T15:08:42.205Z,15.32
2018-09-19T15:11:09.903Z,15.32
2018-09-19T15:13:37.767Z,15.33
2018-09-19T15:16:05.568Z,15.34
2018-09-19T15:18:33.261Z,15.34
2018-09-19T15:21:01.048Z,15.33
2018-09-19T15:23:28.739Z,15.26
2018-09-19T15:25:56.478Z,15.28
2018-09-19T15:28:24.239Z,15.27
2018-09-19T15:30:52.037Z,15.24
2018-09-19T15:33:19.827Z,15.19
2018-09-19T15:35:47.580Z,15.16
2018-09-19T15:38:15.320Z,15.13
2018-09-19T15:40:43.041Z,15.14
2018-09-19T15:43:10.756Z,15.16
2018-09-19T15:45:38.498Z,15.19
2018-09-19T15:48:06.273Z,15.20
2018-09-19T15:50:34.048Z,15.16
2018-09-19T15:53:01.778Z,15.13
2018-09-19T15:55:29.531Z,15.08
2018-09-19T15:57:57.249Z,15.07
2018-09-19T16:00:25.569Z,15.03
2018-09-19T16:02:53.369Z,14.97
2018-09-19T16:05:21.062Z,14.93
2018-09-19T16:07:48.776Z,14.91
2018-09-19T16:10:16.555Z,14.84
2018-09-19T16:12:44.262Z,14.79
2018-09-19T16:15:12.060Z,14.76
2018-09-19T16:17:39.816Z,14.69
2018-09-19T16:20:07.536Z,14.63
2018-09-19T16:22:35.304Z,14.59
2018-09-19T16:25:03.080Z,14.55
2018-09-19T16:27:30.779Z,14.55
2018-09-19T16:29:58.484Z,14.51
2018-09-19T16:32:26.281Z,14.46
2018-09-19T16:34:54.183Z,14.39
2018-09-19T16:37:21.908Z,14.36
2018-09-19T16:39:49.651Z,14.34
2018-09-19T16:42:17.399Z,14.35
2018-09-19T16:44:45.121Z,14.33
2018-09-19T16:47:12.911Z,14.28
2018-09-19T16:49:40.680Z,14.23
2018-09-19T16:52:08.420Z,14.17
2018-09-19T16:54:36.136Z,14.14
2018-09-19T16:57:03.880Z,14.13
2018-09-19T16:59:31.619Z,14.11
2018-09-19T17:01:59.337Z,14.03
2018-09-19T17:04:27.054Z,13.96
2018-09-19T17:06:54.845Z,13.93
2018-09-19T17:09:22.548Z,13.89
2018-09-19T17:11:50.269Z,13.84
2018-09-19T17:14:18.004Z,13.81
2018-09-19T17:16:45.696Z,13.75
2018-09-19T17:19:13.566Z,13.71
2018-09-19T17:21:41.283Z,13.68
2018-09-19T17:24:09.014Z,13.64
2018-09-19T17:26:36.773Z,13.55
2018-09-19T17:29:04.849Z,13.44
2018-09-19T17:31:32.566Z,13.34
2018-09-19T17:34:00.296Z,13.25
2018-09-19T17:36:28.016Z,13.19
2018-09-19T17:38:55.751Z,13.11
2018-09-19T17:41:23.445Z,13.06
2018-09-19T17:43:51.152Z,13.00
2018-09-19T17:46:18.928Z,12.88
2018-09-19T17:48:46.781Z,12.75
2018-09-19T17:51:14.528Z,12.69
2018-09-19T17:53:42.225Z,12.64
2018-09-19T17:56:09.995Z,12.58
2018-09-19T17:58:37.774Z,12.48
2018-09-19T18:01:05.567Z,12.42
2018-09-19T18:03:33.366Z,12.30
2018-09-19T18:06:01.104Z,12.21
2018-09-19T18:08:28.858Z,12.13
2018-09-19T18:10:56.618Z,12.03
2018-09-19T18:13:24.328Z,11.87
2018-09-19T18:15:52.037Z,11.76
2018-09-19T18:18:19.747Z,11.71
2018-09-19T18:20:47.532Z,11.62
2018-09-19T18:23:15.244Z,11.55
2018-09-19T18:25:43.000Z,11.51
2018-09-19T18:28:10.697Z,11.45
2018-09-19T18:30:38.435Z,11.41
2018-09-19T18:33:06.172Z,11.34
2018-09-19T18:35:33.939Z,11.27
2018-09-19T18:38:01.699Z,11.17
2018-09-19T18:40:29.419Z,11.13
2018-09-19T18:42:57.140Z,11.07
2018-09-19T18:45:24.876Z,11.00
2018-09-19T18:47:52.961Z,10.93
2018-09-19T18:50:20.697Z,10.87
2018-09-19T18:52:48.421Z,10.82
2018-09-19T18:55:16.152Z,10.78
2018-09-19T18:57:43.935Z,10.72
2018-09-19T19:00:11.677Z,10.63
2018-09-19T19:02:39.432Z,10.56
2018-09-19T19:05:07.222Z,10.41
2018-09-19T19:07:34.938Z,10.34
2018-09-19T19:10:02.639Z,10.34
2018-09-19T19:12:30.312Z,10.31
2018-09-19T19:14:58.101Z,10.25
2018-09-19T19:17:25.799Z,10.19
2018-09-19T19:19:53.503Z,10.13
2018-09-19T19:22:21.221Z,10.11
2018-09-19T19:24:48.948Z,10.13
2018-09-19T19:27:16.703Z,10.13
2018-09-19T19:29:44.415Z,10.11
2018-09-19T19:32:12.151Z,10.07
2018-09-19T19:34:39.977Z,10.05
2018-09-19T19:37:07.830Z,10.02
2018-09-19T19:39:35.532Z,10.01
2018-09-19T19:42:03.228Z,10.01
2018-09-19T19:44:31.373Z,9.99
2018-09-19T19:46:59.145Z,9.95
2018-09-19T19:49:26.861Z,9.95
2018-09-19T19:51:54.760Z,9.93
2018-09-19T19:54:22.489Z,9.91
2018-09-19T19:56:50.204Z,9.93
2018-09-19T19:59:18.038Z,9.93
2018-09-19T20:01:45.720Z,9.94
2018-09-19T20:04:13.408Z,9.93
2018-09-19T20:06:41.153Z,9.89
2018-09-19T20:09:09.236Z,9.84
2018-09-19T20:11:37.633Z,9.81
2018-09-19T20:14:05.507Z,9.78
2018-09-19T20:16:33.214Z,9.75
2018-09-19T20:19:00.946Z,9.75
2018-09-19T20:21:28.655Z,9.71
2018-09-19T20:23:56.324Z,9.68
2018-09-19T20:26:24.008Z,9.66
2018-09-19T20:28:51.747Z,9.59
2018-09-19T20:31:19.412Z,9.57
2018-09-19T20:33:47.144Z,9.53
2018-09-19T20:36:14.854Z,9.51
2018-09-19T20:38:42.528Z,9.47
2018-09-19T20:41:10.265Z,9.43
2018-09-19T20:43:37.986Z,9.37
2018-09-19T20:46:05.967Z,9.32
2018-09-19T20:48:33.666Z,9.25
2018-09-19T20:51:01.400Z,9.22
2018-09-19T20:53:29.110Z,9.18
2018-09-19T20:55:56.795Z,9.13
2018-09-19T20:58:24.500Z,9.09
2018-09-19T21:00:52.176Z,9.06
2018-09-19T21:03:19.844Z,9.07
2018-09-19T21:05:47.545Z,9.06
2018-09-19T21:08:15.293Z,9.06
2018-09-19T21:10:43.048Z,9.05
2018-09-19T21:13:10.716Z,9.05
2018-09-19T21:15:38.416Z,9.07
2018-09-19T21:18:06.189Z,9.09
2018-09-19T21:20:33.974Z,9.13
2018-09-19T21:23:01.711Z,9.16
2018-09-19T21:25:29.407Z,9.18
2018-09-19T21:27:57.132Z,9.18
2018-09-19T21:30:24.901Z,9.19
2018-09-19T21:32:52.601Z,9.23
2018-09-19T21:35:20.295Z,9.27
2018-09-19T21:37:48.037Z,9.29
2018-09-19T21:40:15.749Z,9.28
2018-09-19T21:42:43.453Z,9.29
2018-09-19T21:45:11.201Z,9.31
2018-09-19T21:47:38.924Z,9.29
2018-09-19T21:50:06.693Z,9.23
2018-09-19T21:52:34.460Z,9.22
2018-09-19T21:55:02.386Z,9.21
2018-09-19T21:57:30.103Z,9.21
2018-09-19T21:59:57.847Z,9.21
2018-09-19T22:02:25.604Z,9.10
2018-09-19T22:04:53.476Z,9.16
2018-09-19T22:07:21.168Z,9.17
2018-09-19T22:09:48.871Z,9.17
2018-09-19T22:12:16.706Z,9.17
2018-09-19T22:14:44.463Z,9.15
2018-09-19T22:17:12.237Z,9.12
2018-09-19T22:19:40.013Z,9.14
2018-09-19T22:22:07.692Z,9.10
2018-09-19T22:24:35.403Z,9.08
2018-09-19T22:27:03.136Z,9.04
2018-09-19T22:29:30.840Z,8.97
2018-09-19T22:31:58.694Z,8.95
2018-09-19T22:34:26.373Z,8.93
2018-09-19T22:36:54.082Z,8.85
2018-09-19T22:39:21.838Z,8.79
2018-09-19T22:41:49.582Z,8.74
2018-09-19T22:44:17.312Z,8.72
2018-09-19T22:46:45.000Z,8.69
2018-09-19T22:49:12.753Z,8.66
2018-09-19T22:51:40.511Z,8.63
2018-09-19T22:54:08.225Z,8.59
2018-09-19T22:56:36.005Z,8.56
2018-09-19T22:59:03.722Z,8.52
2018-09-19T23:01:31.437Z,8.49
2018-09-19T23:03:59.172Z,8.47
2018-09-19T23:06:26.861Z,8.39
2018-09-19T23:08:54.620Z,8.35
2018-09-19T23:11:22.309Z,8.29
2018-09-19T23:13:50.012Z,8.27
2018-09-19T23:16:17.776Z,8.22
2018-09-19T23:18:45.564Z,8.19
2018-09-19T23:21:13.408Z,8.17
2018-09-19T23:23:41.174Z,8.20
2018-09-19T23:26:08.878Z,8.19
2018-09-19T23:28:36.640Z,8.19
2018-09-19T23:31:04.319Z,8.19
2018-09-19T23:33:32.011Z,8.22
2018-09-19T23:35:59.744Z,8.24
2018-09-19T23:38:27.532Z,8.26
2018-09-19T23:40:55.236Z,8.27
2018-09-19T23:43:22.936Z,8.28
2018-09-19T23:45:50.748Z,8.32
2018-09-19T23:48:18.467Z,8.35
2018-09-19T23:50:46.236Z,8.36
2018-09-19T23:53:13.952Z,8.38
2018-09-19T23:55:41.733Z,8.37
2018-09-19T23:58:09.424Z,8.40
